createdAt,value
2018-07-25T00:02:24.548Z,9.18
2018-07-25T00:07:19.117Z,11.00
2018-07-25T00:12:13.698Z,11.60
2018-07-25T00:17:08.253Z,13.43
2018-07-25T00:22:02.807Z,10.08
2018-07-25T00:26:57.382Z,9.78
2018-07-25T00:31:51.958Z,10.10
2018-07-25T00:36:46.476Z,9.67
2018-07-25T00:41:41.006Z,9.93
2018-07-25T00:46:35.518Z,9.80
2018-07-25T00:51:30.525Z,11.13
2018-07-25T00:56:25.125Z,11.63
2018-07-25T01:01:19.751Z,10.57
2018-07-25T01:06:14.273Z,10.50
2018-07-25T01:11:08.860Z,10.03
2018-07-25T01:16:04.416Z,10.93
2018-07-25T01:20:59.008Z,11.03
2018-07-25T01:25:53.230Z,11.23
2018-07-25T01:30:47.818Z,10.37
2018-07-25T01:35:42.055Z,10.50
2018-07-25T01:40:36.607Z,10.47
2018-07-25T01:45:31.117Z,11.07
2018-07-25T01:50:25.685Z,9.67
2018-07-25T01:55:20.211Z,9.77
2018-07-25T02:00:14.781Z,10.27
2018-07-25T02:05:09.324Z,10.53
2018-07-25T02:10:03.929Z,10.30
2018-07-25T02:14:58.538Z,9.20
2018-07-25T02:19:53.142Z,10.17
2018-07-25T02:24:47.689Z,10.50
2018-07-25T02:29:42.236Z,10.43
2018-07-25T02:34:36.787Z,10.77
2018-07-25T02:39:31.044Z,11.07
2018-07-25T02:44:25.585Z,12.37
2018-07-25T02:49:20.202Z,10.73
2018-07-25T02:54:14.774Z,11.60
2018-07-25T02:59:09.339Z,11.07
2018-07-25T03:04:03.917Z,11.83
2018-07-25T03:08:58.536Z,11.37
2018-07-25T03:13:53.042Z,11.73
2018-07-25T03:18:47.591Z,11.37
2018-07-25T03:23:42.137Z,11.47
2018-07-25T03:28:36.743Z,11.80
2018-07-25T03:33:31.321Z,11.57
2018-07-25T03:38:26.489Z,11.57
2018-07-25T03:43:21.130Z,12.70
2018-07-25T03:48:15.714Z,13.37
2018-07-25T03:53:10.311Z,12.90
2018-07-25T03:58:04.965Z,13.67
2018-07-25T04:02:59.546Z,13.43
2018-07-25T04:07:54.293Z,13.60
2018-07-25T04:12:49.255Z,13.97
2018-07-25T04:17:45.915Z,14.03
2018-07-25T04:22:40.544Z,14.87
2018-07-25T04:27:35.666Z,12.53
2018-07-25T04:32:30.244Z,12.88
2018-07-25T04:37:24.981Z,11.95
2018-07-25T04:42:20.213Z,14.03
2018-07-25T04:47:14.740Z,11.35
2018-07-25T04:52:09.334Z,13.68
2018-07-25T04:57:03.921Z,12.75
2018-07-25T05:01:58.513Z,10.63
2018-07-25T05:06:53.072Z,11.00
2018-07-25T05:11:47.590Z,12.58
2018-07-25T05:16:42.162Z,11.78
2018-07-25T05:21:36.743Z,11.88
2018-07-25T05:26:31.261Z,10.98
2018-07-25T05:31:25.686Z,12.10
2018-07-25T05:36:20.369Z,15.95
2018-07-25T05:41:14.785Z,13.98
2018-07-25T05:46:09.297Z,11.80
2018-07-25T05:51:03.785Z,16.60
2018-07-25T05:55:58.310Z,14.98
2018-07-25T06:00:52.763Z,15.15
2018-07-25T06:05:47.278Z,11.43
2018-07-25T06:10:41.368Z,10.32
2018-07-25T06:15:35.829Z,11.00
2018-07-25T06:20:30.429Z,10.05
2018-07-25T06:25:36.494Z,9.95
2018-07-25T06:30:30.976Z,13.98
2018-07-25T06:35:25.925Z,11.60
2018-07-25T06:40:20.110Z,12.13
2018-07-25T06:45:14.577Z,14.05
2018-07-25T06:50:12.145Z,14.75
2018-07-25T06:55:06.753Z,14.68
2018-07-25T07:00:01.312Z,13.05
2018-07-25T07:05:00.149Z,14.15
2018-07-25T07:09:54.565Z,12.55
2018-07-25T07:14:49.085Z,17.17
2018-07-25T07:19:43.677Z,12.45
2018-07-25T07:24:38.504Z,13.30
2018-07-25T07:29:33.305Z,12.25
2018-07-25T07:34:33.843Z,12.63
2018-07-25T07:39:28.415Z,13.88
2018-07-25T07:44:39.925Z,13.50
2018-07-25T07:49:36.178Z,13.72
2018-07-25T07:54:31.641Z,10.70
2018-07-25T07:59:26.215Z,11.08
2018-07-25T08:04:20.800Z,12.55
2018-07-25T08:09:15.979Z,12.25
2018-07-25T08:14:17.427Z,11.55
2018-07-25T08:19:13.033Z,14.00
2018-07-25T08:24:07.541Z,16.07
2018-07-25T08:29:02.102Z,13.00
2018-07-25T08:33:56.685Z,14.33
2018-07-25T08:38:51.324Z,15.60
2018-07-25T08:43:45.818Z,11.05
2018-07-25T08:48:40.504Z,10.48
2018-07-25T08:53:35.417Z,10.15
2018-07-25T08:58:30.181Z,10.28
2018-07-25T09:03:33.702Z,11.57
2018-07-25T09:08:29.107Z,10.60
2018-07-25T09:13:23.808Z,10.82
2018-07-25T09:18:18.325Z,11.28
2018-07-25T09:23:12.775Z,10.90
2018-07-25T09:28:07.849Z,10.72
2018-07-25T09:33:03.417Z,8.70
2018-07-25T09:37:58.074Z,7.92
2018-07-25T09:42:53.961Z,7.62
2018-07-25T09:47:49.399Z,7.75
2018-07-25T09:52:47.223Z,8.78
2018-07-25T09:57:42.018Z,8.58
2018-07-25T10:02:36.697Z,10.58
2018-07-25T10:07:31.231Z,8.90
2018-07-25T10:12:26.417Z,8.43
2018-07-25T10:17:21.734Z,8.30
2018-07-25T10:22:15.929Z,10.55
2018-07-25T10:27:10.965Z,8.70
2018-07-25T10:32:05.425Z,7.78
2018-07-25T10:36:59.620Z,8.50
2018-07-25T10:41:54.150Z,8.23
2018-07-25T10:46:48.751Z,8.23
2018-07-25T10:51:43.290Z,9.83
2018-07-25T10:56:38.030Z,8.30
2018-07-25T11:01:33.569Z,7.92
2018-07-25T11:06:28.289Z,7.45
2018-07-25T11:11:23.125Z,15.15
2018-07-25T11:16:18.090Z,8.08
2018-07-25T11:21:12.591Z,6.25
2018-07-25T11:26:07.438Z,7.83
2018-07-25T11:31:02.156Z,6.75
2018-07-25T11:35:57.184Z,5.62
2018-07-25T11:40:52.233Z,5.15
2018-07-25T11:45:50.440Z,6.42
2018-07-25T11:50:48.615Z,5.65
2018-07-25T11:55:46.818Z,14.18
2018-07-25T12:00:46.087Z,5.12
2018-07-25T12:05:49.499Z,5.95
2018-07-25T12:10:47.542Z,7.05
2018-07-25T12:15:42.191Z,4.78
2018-07-25T12:20:39.798Z,6.65
2018-07-25T12:25:34.507Z,6.95
2018-07-25T12:30:31.723Z,6.28
2018-07-25T12:35:26.625Z,6.53
2018-07-25T12:40:21.452Z,6.83
2018-07-25T12:45:19.815Z,7.55
2018-07-25T12:50:15.631Z,7.55
2018-07-25T12:55:11.250Z,7.17
2018-07-25T13:00:08.438Z,7.45
2018-07-25T13:05:03.266Z,7.00
2018-07-25T13:09:58.443Z,6.67
2018-07-25T13:14:53.574Z,7.90
2018-07-25T13:19:48.507Z,6.58
2018-07-25T13:24:44.793Z,6.62
2018-07-25T13:29:39.498Z,6.03
2018-07-25T13:34:34.189Z,6.12
2018-07-25T13:39:28.981Z,5.67
2018-07-25T13:44:24.063Z,6.72
2018-07-25T13:49:19.175Z,5.62
2018-07-25T13:54:27.271Z,5.97
2018-07-25T13:59:23.432Z,7.20
2018-07-25T14:04:19.631Z,5.37
2018-07-25T14:09:16.007Z,6.70
2018-07-25T14:14:11.352Z,7.53
2018-07-25T14:19:06.459Z,7.33
2018-07-25T14:24:01.581Z,9.13
2018-07-25T14:28:56.634Z,6.55
2018-07-25T14:33:51.241Z,7.95
2018-07-25T14:38:45.952Z,5.60
2018-07-25T14:43:40.692Z,5.30
2018-07-25T14:48:35.805Z,6.42
2018-07-25T14:53:30.927Z,5.30
2018-07-25T14:58:25.686Z,5.42
2018-07-25T15:03:20.313Z,5.70
2018-07-25T15:08:15.861Z,4.75
2018-07-25T15:13:11.095Z,5.30
2018-07-25T15:18:08.890Z,5.83
2018-07-25T15:23:03.552Z,4.95
2018-07-25T15:27:58.347Z,5.08
2018-07-25T15:32:53.077Z,4.70
2018-07-25T15:37:47.801Z,5.12
2018-07-25T15:42:42.630Z,6.60
2018-07-25T15:47:37.286Z,4.97
2018-07-25T15:52:31.911Z,6.60
2018-07-25T15:57:26.688Z,4.58
2018-07-25T16:02:21.282Z,4.47
2018-07-25T16:07:15.922Z,4.22
2018-07-25T16:12:11.041Z,6.92
2018-07-25T16:17:05.803Z,4.97
2018-07-25T16:22:01.058Z,5.28
2018-07-25T16:26:55.654Z,6.17
2018-07-25T16:31:50.269Z,7.92
2018-07-25T16:36:45.246Z,4.53
2018-07-25T16:41:40.277Z,4.55
2018-07-25T16:46:35.124Z,5.37
2018-07-25T16:51:29.710Z,7.53
2018-07-25T16:56:24.309Z,8.45
2018-07-25T17:01:18.960Z,5.87
2018-07-25T17:06:13.803Z,6.58
2018-07-25T17:11:08.671Z,5.10
2018-07-25T17:16:03.313Z,6.45
2018-07-25T17:20:57.878Z,4.40
2018-07-25T17:25:52.514Z,4.80
2018-07-25T17:30:47.526Z,5.53
2018-07-25T17:35:42.459Z,4.33
2018-07-25T17:40:36.796Z,4.97
2018-07-25T17:45:31.292Z,5.40
2018-07-25T17:50:25.885Z,6.08
2018-07-25T17:55:20.565Z,4.92
2018-07-25T18:00:15.156Z,4.70
2018-07-25T18:05:10.518Z,4.70
2018-07-25T18:10:05.626Z,5.78
2018-07-25T18:14:59.901Z,5.08
2018-07-25T18:19:54.554Z,6.62
2018-07-25T18:24:49.294Z,7.75
2018-07-25T18:29:43.900Z,4.78
2018-07-25T18:34:38.509Z,4.50
2018-07-25T18:39:33.114Z,7.35
2018-07-25T18:44:27.715Z,6.55
2018-07-25T18:49:22.360Z,5.95
2018-07-25T18:54:16.948Z,6.33
2018-07-25T18:59:11.684Z,8.55
2018-07-25T19:04:06.494Z,7.03
2018-07-25T19:09:01.114Z,4.50
2018-07-25T19:14:00.975Z,4.20
2018-07-25T19:18:55.533Z,4.28
2018-07-25T19:23:50.224Z,4.47
2018-07-25T19:28:44.721Z,4.17
2018-07-25T19:33:39.260Z,4.92
2018-07-25T19:38:33.849Z,5.17
2018-07-25T19:43:28.488Z,5.55
2018-07-25T19:48:23.051Z,5.80
2018-07-25T19:53:17.651Z,5.47
2018-07-25T19:58:12.292Z,4.87
2018-07-25T20:03:07.150Z,4.65
2018-07-25T20:08:02.246Z,4.45
2018-07-25T20:12:57.038Z,5.47
2018-07-25T20:17:51.662Z,7.70
2018-07-25T20:22:46.302Z,6.33
2018-07-25T20:27:40.851Z,6.50
2018-07-25T20:32:35.485Z,4.95
2018-07-25T20:37:30.104Z,6.75
2018-07-25T20:42:25.122Z,9.10
2018-07-25T20:47:19.727Z,9.00
2018-07-25T20:52:14.438Z,7.08
2018-07-25T20:57:09.231Z,6.80
2018-07-25T21:02:03.837Z,7.70
2018-07-25T21:06:58.409Z,10.85
2018-07-25T21:11:53.155Z,10.75
2018-07-25T21:16:47.477Z,10.90
2018-07-25T21:21:42.287Z,9.43
2018-07-25T21:26:36.872Z,9.08
2018-07-25T21:31:31.445Z,9.55
2018-07-25T21:36:26.187Z,10.85
2018-07-25T21:41:20.890Z,6.75
2018-07-25T21:46:15.450Z,11.25
2018-07-25T21:51:10.002Z,8.33
2018-07-25T21:56:04.261Z,9.08
2018-07-25T22:01:00.715Z,8.28
2018-07-25T22:05:55.297Z,6.45
2018-07-25T22:10:49.868Z,7.10
2018-07-25T22:15:44.097Z,7.25
2018-07-25T22:20:38.665Z,8.38
2018-07-25T22:25:32.928Z,8.18
2018-07-25T22:30:27.541Z,8.03
2018-07-25T22:35:22.138Z,7.42
2018-07-25T22:40:16.747Z,6.58
2018-07-25T22:45:11.370Z,4.87
2018-07-25T22:50:05.987Z,5.08
2018-07-25T22:55:00.623Z,5.10
2018-07-25T22:59:55.222Z,8.70
2018-07-25T23:04:49.830Z,9.20
2018-07-25T23:09:44.470Z,6.75
2018-07-25T23:14:39.056Z,6.10
2018-07-25T23:19:33.575Z,7.97
2018-07-25T23:24:28.122Z,5.65
2018-07-25T23:29:22.715Z,6.70
2018-07-25T23:34:17.522Z,7.10
2018-07-25T23:39:12.701Z,6.60
2018-07-25T23:44:07.380Z,6.40
2018-07-25T23:49:01.946Z,8.23
2018-07-25T23:53:56.534Z,6.92
2018-07-25T23:58:51.096Z,7.92
